Overview Statistics Trail Chart Weather Telemetry Raw packets
 

This is the latest recevied weather packets stored in our database for station/object KQ4KX. If no packets are shown the sender has not sent any weather packets the latest 10 day(s).

<< 39 40 41 42 43 44 45 >>
Time Temp. Humidity Pressure Rain* Wind** Luminosity Snow
1788364931 31.11° C 83% 1016.5 hPa 0 mm - - -
1788364743 31.11° C 83% 1016.5 hPa 0 mm - - -
1788364444 31.11° C 82% 1016.5 hPa 0 mm - - -
1788364304 30.56° C 84% 1016.6 hPa 0 mm - - -
1788364113 30.56° C 84% 1016.6 hPa 0 mm - - -
1788363813 30.56° C 81% 1016.8 hPa 0 mm - - -
1788362715 31.11° C 83% 1016.9 hPa 0 mm - - -
1788362553 31.11° C 83% 1016.9 hPa 0 mm - - -
1788362415 31.11° C 83% 1016.9 hPa 0 mm - - -
1788362253 31.11° C 83% 1016.9 hPa 0 mm - - -
1788360993 30° C 87% 1016.8 hPa 0 mm - - -
1788360393 30° C 87% 1016.8 hPa 0 mm - - -
1788359794 28.89° C 90% 1016.6 hPa 0 mm - - -
1788358697 28.89° C 92% 1016.6 hPa 0 mm - - -
1788358564 28.89° C 92% 1016.6 hPa 0 mm - - -
1788358263 28.89° C 92% 1016.7 hPa 0 mm - - -
1788357603 28.33° C 93% 1016.6 hPa 0 mm - - -
1788357479 27.78° C 93% 1016.7 hPa 0 mm - - -
1788357274 27.78° C 93% 1016.7 hPa 0 mm - - -
1788357136 27.78° C 94% 1016.6 hPa 0 mm - - -
1788356973 27.78° C 94% 1016.6 hPa 0 mm - - -
1788356313 27.78° C 95% 1016.6 hPa 0 mm - - -
1788356013 27.78° C 95% 1016.7 hPa 0 mm - - -
1788355714 27.78° C 95% 1016.8 hPa 0 mm - - -
1788355188 27.22° C 96% 1016.7 hPa 0 mm - - -

* Rain latest hour (hover to see other rain measurements)
** Current wind speed in m/s (hover to see current wind gust speed)